Terminal Aerodrome Forecast
Issued by NWS Blacksburg, VA

Current Version | Previous Version | Graphics & Text | Print | Product List | Glossary On
Versions: 1 2 3 4 5 6 7 8 9 10 11 12 13 14 15 16 17 18 19 20 21 22 23 24
000
FTUS41 KRNK 292324
TAFBLF
TAF
KBLF 292324Z 3000/3024 00000KT P6SM BKN120
     FM300300 16004KT P6SM SCT120 BKN250
     FM301400 22005KT P6SM SCT040
     FM301700 21008KT P6SM VCTS SCT060CB BKN250=

USA.gov is the U.S. government's official web portal to all federal, state and local government web resources and services.